Live aus Altenrhein
LIVE
LSZR 300420Z 00000KT CAVOK 05/04 Q1027 NOSIG RMK A

People´s Info Center:

Öffnungszeiten Mo-Fr, 8-18 Uhr

 

info@peoples.ch

 
Aus Österreich:

T: +43 (0)5572 203 610

 

Aus CH / LI / DE:

T: +41 (0)71 858 51 60

 

Infoletter

 

Jetzt anmelden und monatlich über News der People's Viennaline und des Flughafen St.Gallen-Altenrheins informiert werden.

Der Newsletter ist jederzeit wieder abbestellbar.